ADDS TAF Board (Experimental) INFO Settings
IDs:

KMCI - Kansas City Intl, MO, US

Issued at 1120 UTC 02 Sep 2015
Updated at: 1301 UTC 02 Sep 2015
Time1253Z 02/13Z 02/14Z 02/15Z 02/16Z 02/17Z 02/18Z 02/19Z 02/20Z 02/21Z 02/22Z 02/23Z 03/00Z 03/01Z
Type OBS PRVL PRVL PRVL PRVL PRVL PRVL PRVL PRVL PRVL PRVL PRVL PRVL PRVL
VIS 9 >6 >6 >6 >6 >6 >6 >6 >6 >6 >6 >6 >6 >6
CIG 85 90 90 90 -- -- -- -- -- -- -- -- -- --
Cover OVC BKN BKN BKN SCT SCT SCT SCT SCT SCT SCT SCT SCT SCT
FltCat VFR VFR VFR VFR VFR VFR VFR VFR VFR VFR VFR VFR VFR VFR
WX -- VCTS VCTS VCTS -- -- -- -- -- -- -- -- -- --
WDir 50 190 190 190 190 190 190 190 190 190 190 190 180 180
WSpd 4 11 11 11 14 14 14 14 14 14 14 14 9 9
WGst -- -- -- -- 21 21 21 21 21 21 21 21 -- --
R01/19
XWnd -2 -1 -1 -1 -1 -1 -1 -1 -1 -1 -1 -1 -2 -2
XGst -- -- -- -- -1 -1 -1 -1 -1 -1 -1 -1 -- --
HWnd 3 -11 -11 -11 -14 -14 -14 -14 -14 -14 -14 -14 -9 -9
HGst -- -- -- -- -21 -21 -21 -21 -21 -21 -21 -21 -- --
R09/27
XWnd 3 -11 -11 -11 -14 -14 -14 -14 -14 -14 -14 -14 -9 -9
XGst -- -- -- -- -21 -21 -21 -21 -21 -21 -21 -21 -- --
HWnd 3 -1 -1 -1 -1 -1 -1 -1 -1 -1 -1 -1 1 1
HGst -- -- -- -- -1 -1 -1 -1 -1 -1 -1 -1 -- --

NOTE: TEMPO conditions in [brackets]. Keep in mind TEMPO conditions might be better (lower impact) than prevailing conditions.

Raw TAF
KMCI 021120Z 0212/0312 19011KT P6SM VCTS BKN090CB
  FM021600 19014G21KT P6SM SCT090
  FM030000 18009KT P6SM SCT120


Raw METAR
KMCI 021253Z 05004KT 9SM OVC085 24/18 A3006 RMK AO2 LTG DSNT NW-NE SLP169 T02440183
KMCI 021153Z 17006KT 10SM OVC090 23/18 A3001 RMK AO2 LTG DSNT N AND NW SLP151 T02280183 10233 20222 53007
KMCI 021053Z 18009KT 10SM OVC090 23/18 A3000 RMK AO2 LTG DSNT N AND NW SLP144 T02330183
KMCI 020953Z 17008KT 10SM SCT090 23/18 A2999 RMK AO2 SLP142 T02280183

METAR Board
Radar Display
Forecast Discussion

TAF Board Legend

Potential Impact
Threat None Slight Moderate High
Visibility (sm) ≥5.1 5.1>X≥3 3>X≥1 <1
Ceiling (100 ft) ≥30.1 30.1>X≥10 10>X≥5 <5
Wind Speed (kt) <10 10≤X<20 20≤X<30 ≥30
Wind Gust (kt) <15 15≤X<25 25≤X<35 ≥35
Weather No Wx Reported VCTS,-TS,-FZRA,SN TS,FZRA +TS,+FZRA,+SN